createdAt,value
2019-01-27T00:00:35.960Z,98393.81
2019-01-27T00:03:02.729Z,98379.05
2019-01-27T00:05:29.151Z,98378.36
2019-01-27T00:07:55.332Z,98365.22
2019-01-27T00:10:21.489Z,98356.02
2019-01-27T00:12:47.666Z,98356.95
2019-01-27T00:15:13.830Z,98351.70
2019-01-27T00:17:40.332Z,98357.89
2019-01-27T00:20:15.203Z,98348.20
2019-01-27T00:22:41.409Z,98357.16
2019-01-27T00:25:07.673Z,98348.28
2019-01-27T00:27:33.851Z,98341.86
2019-01-27T00:30:00.262Z,98346.45
2019-01-27T00:32:26.420Z,98339.37
2019-01-27T00:34:52.625Z,98340.48
2019-01-27T00:37:18.843Z,98336.72
2019-01-27T00:39:45.305Z,98333.42
2019-01-27T00:42:11.967Z,98329.14
2019-01-27T00:44:38.174Z,98321.92
2019-01-27T00:47:04.455Z,98313.88
2019-01-27T00:49:30.655Z,98320.30
2019-01-27T00:51:57.257Z,98315.05
2019-01-27T00:54:23.416Z,98304.72
2019-01-27T00:56:49.576Z,98301.11
2019-01-27T00:59:15.810Z,98292.43
2019-01-27T01:01:42.083Z,98289.83
2019-01-27T01:04:08.273Z,98284.27
2019-01-27T01:06:34.456Z,98282.77
2019-01-27T01:09:00.765Z,98278.83
2019-01-27T01:11:26.936Z,98276.38
2019-01-27T01:13:53.268Z,98275.39
2019-01-27T01:16:19.449Z,98270.94
2019-01-27T01:18:45.677Z,98262.91
2019-01-27T01:21:11.870Z,98260.28
2019-01-27T01:23:38.293Z,98263.23
2019-01-27T01:26:04.476Z,98255.17
2019-01-27T01:28:30.712Z,98252.20
2019-01-27T01:30:57.020Z,98254.02
2019-01-27T01:33:23.242Z,98252.88
2019-01-27T01:35:49.405Z,98246.95
2019-01-27T01:38:15.581Z,98246.10
2019-01-27T01:40:42.212Z,98243.66
2019-01-27T01:43:08.409Z,98240.34
2019-01-27T01:45:34.674Z,98231.50
2019-01-27T01:48:01.277Z,98227.56
2019-01-27T01:50:27.459Z,98221.33
2019-01-27T01:52:53.888Z,98209.02
2019-01-27T01:55:20.248Z,98205.44
2019-01-27T01:57:46.432Z,98205.77
2019-01-27T02:00:16.613Z,98198.03
2019-01-27T02:02:43.061Z,98190.97
2019-01-27T02:05:11.668Z,98188.98
2019-01-27T02:07:38.039Z,98180.78
2019-01-27T02:10:08.864Z,98174.20
2019-01-27T02:12:35.055Z,98167.32
2019-01-27T02:15:01.354Z,98164.22
2019-01-27T02:17:27.780Z,98158.34
2019-01-27T02:19:54.055Z,98152.94
2019-01-27T02:22:20.218Z,98151.47
2019-01-27T02:24:46.424Z,98144.92
2019-01-27T02:27:12.590Z,98133.94
2019-01-27T02:29:38.866Z,98134.95
2019-01-27T02:32:05.102Z,98130.83
2019-01-27T02:34:31.315Z,98122.83
2019-01-27T02:36:57.472Z,98110.35
2019-01-27T02:39:26.738Z,98103.96
2019-01-27T02:41:52.930Z,98106.61
2019-01-27T02:44:19.092Z,98094.45
2019-01-27T02:46:45.299Z,98089.69
2019-01-27T02:49:11.483Z,98081.33
2019-01-27T02:51:37.661Z,98075.44
2019-01-27T02:54:04.145Z,98077.74
2019-01-27T02:56:30.315Z,98068.70
2019-01-27T02:58:56.499Z,98062.00
2019-01-27T03:01:23.616Z,98054.44
2019-01-27T03:03:49.844Z,98045.13
2019-01-27T03:06:27.185Z,98050.37
2019-01-27T03:08:55.195Z,98041.00
2019-01-27T03:11:21.382Z,98034.94
2019-01-27T03:13:47.563Z,98027.20
2019-01-27T03:16:14.162Z,98020.98
2019-01-27T03:18:40.364Z,98012.45
2019-01-27T03:21:06.591Z,98005.21
2019-01-27T03:23:32.752Z,98001.63
2019-01-27T03:25:58.988Z,98001.11
2019-01-27T03:28:25.142Z,98000.47
2019-01-27T03:30:51.549Z,97992.77
2019-01-27T03:33:17.777Z,97986.69
2019-01-27T03:35:44.351Z,97988.99
2019-01-27T03:38:10.539Z,97983.75
2019-01-27T03:40:36.854Z,97980.98
2019-01-27T03:43:12.992Z,97976.55
2019-01-27T03:45:39.806Z,97970.48
2019-01-27T03:48:05.997Z,97961.09
2019-01-27T03:50:32.233Z,97953.41
2019-01-27T03:52:58.378Z,97958.78
2019-01-27T03:55:28.563Z,97959.78
2019-01-27T03:57:54.790Z,97948.14
2019-01-27T04:00:22.841Z,97939.10
2019-01-27T04:02:49.134Z,97936.66
2019-01-27T04:05:15.677Z,97930.09
2019-01-27T04:07:42.339Z,97925.16
2019-01-27T04:10:24.730Z,97919.91
2019-01-27T04:12:50.906Z,97913.37
2019-01-27T04:15:17.297Z,97908.80
2019-01-27T04:17:43.595Z,97912.56
2019-01-27T04:20:13.612Z,97911.42
2019-01-27T04:22:39.818Z,97912.73
2019-01-27T04:25:06.414Z,97901.73
2019-01-27T04:27:32.606Z,97900.77
2019-01-27T04:29:58.851Z,97900.44
2019-01-27T04:32:25.021Z,97894.36
2019-01-27T04:34:51.187Z,97890.24
2019-01-27T04:37:17.429Z,97885.67
2019-01-27T04:39:43.584Z,97880.89
2019-01-27T04:42:09.883Z,97874.67
2019-01-27T04:44:36.046Z,97866.94
2019-01-27T04:47:02.226Z,97865.80
2019-01-27T04:49:28.439Z,97859.41
2019-01-27T04:51:54.698Z,97859.41
2019-01-27T04:54:20.890Z,97856.45
2019-01-27T04:56:47.085Z,97853.00
2019-01-27T04:59:13.297Z,97855.30
2019-01-27T05:01:39.767Z,97850.38
2019-01-27T05:04:07.872Z,97848.39
2019-01-27T05:06:34.038Z,97843.16
2019-01-27T05:09:00.238Z,97840.02
2019-01-27T05:11:26.399Z,97837.23
2019-01-27T05:13:52.607Z,97836.74
2019-01-27T05:16:25.486Z,97826.73
2019-01-27T05:18:51.671Z,97820.35
2019-01-27T05:21:17.844Z,97809.19
2019-01-27T05:23:44.362Z,97810.50
2019-01-27T05:26:10.836Z,97805.58
2019-01-27T05:28:37.027Z,97802.47
2019-01-27T05:31:04.507Z,97797.07
2019-01-27T05:33:30.713Z,97793.79
2019-01-27T05:35:56.903Z,97787.55
2019-01-27T05:38:23.122Z,97789.21
2019-01-27T05:40:49.306Z,97784.13
2019-01-27T05:43:15.779Z,97777.89
2019-01-27T05:45:42.294Z,97785.75
2019-01-27T05:48:08.772Z,97783.46
2019-01-27T05:50:34.997Z,97786.41
2019-01-27T05:53:01.179Z,97787.07
2019-01-27T05:55:27.347Z,97784.11
2019-01-27T05:57:53.635Z,97771.28
2019-01-27T06:00:27.811Z,97774.44
2019-01-27T06:02:54.018Z,97766.55
2019-01-27T06:05:20.304Z,97758.84
2019-01-27T06:07:46.502Z,97759.16
2019-01-27T06:10:12.767Z,97762.77
2019-01-27T06:12:39.331Z,97748.64
2019-01-27T06:15:10.665Z,97750.92
2019-01-27T06:17:37.053Z,97746.48
2019-01-27T06:20:09.079Z,97749.44
2019-01-27T06:22:35.253Z,97748.45
2019-01-27T06:25:01.599Z,97741.54
2019-01-27T06:27:27.768Z,97737.59
2019-01-27T06:29:53.980Z,97737.58
2019-01-27T06:32:22.060Z,97733.78
2019-01-27T06:34:48.238Z,97725.73
2019-01-27T06:37:14.453Z,97727.19
2019-01-27T06:39:40.625Z,97725.05
2019-01-27T06:42:07.220Z,97720.75
2019-01-27T06:44:33.586Z,97720.59
2019-01-27T06:47:01.693Z,97722.87
2019-01-27T06:49:27.903Z,97716.14
2019-01-27T06:51:54.068Z,97713.35
2019-01-27T06:54:26.512Z,97704.13
2019-01-27T06:56:52.692Z,97705.13
2019-01-27T06:59:23.992Z,97700.67
2019-01-27T07:01:52.134Z,97697.70
2019-01-27T07:04:20.282Z,97702.29
2019-01-27T07:06:48.431Z,97700.63
2019-01-27T07:09:16.532Z,97693.89
2019-01-27T07:11:47.261Z,97693.55
2019-01-27T07:14:21.436Z,97694.70
2019-01-27T07:16:49.525Z,97689.91
2019-01-27T07:19:17.665Z,97683.00
2019-01-27T07:21:48.562Z,97684.80
2019-01-27T07:24:16.758Z,97683.95
2019-01-27T07:26:50.738Z,97673.44
2019-01-27T07:29:28.009Z,97665.55
2019-01-27T07:32:12.909Z,97664.24
2019-01-27T07:34:47.089Z,97650.12
2019-01-27T07:37:27.428Z,97651.14
2019-01-27T07:40:10.774Z,97649.49
2019-01-27T07:42:44.811Z,97648.16
2019-01-27T07:45:16.974Z,97646.84
2019-01-27T07:47:45.052Z,97636.61
2019-01-27T07:50:35.775Z,97636.23
2019-01-27T07:53:06.780Z,97641.66
2019-01-27T07:55:34.881Z,97641.95
2019-01-27T07:58:25.811Z,97642.73
2019-01-27T08:00:59.939Z,97643.56
2019-01-27T08:03:30.962Z,97641.70
2019-01-27T08:06:11.264Z,97637.27
2019-01-27T08:08:56.516Z,97629.87
2019-01-27T08:11:24.625Z,97633.64
2019-01-27T08:13:52.692Z,97621.44
2019-01-27T08:16:37.883Z,97622.20
2019-01-27T08:19:08.848Z,97626.30
2019-01-27T08:21:46.017Z,97622.34
2019-01-27T08:24:23.041Z,97624.28
2019-01-27T08:26:57.295Z,97621.48
2019-01-27T08:29:28.265Z,97613.55
2019-01-27T08:31:56.696Z,97605.27
2019-01-27T08:34:41.022Z,97611.81
2019-01-27T08:37:09.119Z,97610.61
2019-01-27T08:39:43.323Z,97609.11
2019-01-27T08:42:11.389Z,97613.99
2019-01-27T08:44:42.161Z,97613.27
2019-01-27T08:47:08.364Z,97612.04
2019-01-27T08:49:34.548Z,97613.42
2019-01-27T08:52:00.765Z,97606.30
2019-01-27T08:54:27.287Z,97610.52
2019-01-27T08:56:53.502Z,97609.34
2019-01-27T08:59:20.063Z,97591.56
2019-01-27T09:01:54.086Z,97596.97
2019-01-27T09:04:22.202Z,97597.77
2019-01-27T09:06:50.326Z,97597.28
2019-01-27T09:09:18.819Z,97595.47
2019-01-27T09:12:05.607Z,97596.94
2019-01-27T09:14:38.350Z,97592.20
2019-01-27T09:17:23.506Z,97588.91
2019-01-27T09:19:57.566Z,97586.33
2019-01-27T09:22:40.700Z,97590.73
2019-01-27T09:25:13.481Z,97586.91
2019-01-27T09:27:44.191Z,97588.12
2019-01-27T09:30:17.917Z,97589.20
2019-01-27T09:32:52.990Z,97586.50
2019-01-27T09:35:21.565Z,97584.91
2019-01-27T09:37:50.001Z,97578.50
2019-01-27T09:40:18.099Z,97578.06
2019-01-27T09:42:55.150Z,97578.88
2019-01-27T09:45:41.318Z,97577.73
2019-01-27T09:48:15.502Z,97572.09
2019-01-27T09:50:54.635Z,97565.09
2019-01-27T09:53:22.880Z,97564.45
2019-01-27T09:55:51.092Z,97559.43
2019-01-27T09:58:27.873Z,97556.33
2019-01-27T10:00:56.032Z,97554.52
2019-01-27T10:03:24.109Z,97546.16
2019-01-27T10:05:57.910Z,97547.47
2019-01-27T10:11:15.228Z,97547.31
2019-01-27T10:13:46.284Z,97555.20
2019-01-27T10:16:29.658Z,97543.80
2019-01-27T10:19:06.656Z,97546.95
2019-01-27T10:21:37.698Z,97536.64
2019-01-27T10:24:06.078Z,97532.69
2019-01-27T10:26:40.408Z,97530.68
2019-01-27T10:29:14.844Z,97526.17
2019-01-27T10:31:43.115Z,97528.87
2019-01-27T10:34:20.181Z,97517.28
2019-01-27T10:36:48.269Z,97509.03
2019-01-27T10:39:16.350Z,97515.42
2019-01-27T10:41:50.689Z,97514.70
2019-01-27T10:44:38.401Z,97513.70
2019-01-27T10:47:13.182Z,97509.35
2019-01-27T10:49:44.238Z,97500.31
2019-01-27T10:52:21.150Z,97490.77
2019-01-27T10:55:06.180Z,97499.63
2019-01-27T10:57:34.486Z,97478.28
2019-01-27T11:00:05.270Z,97477.09
2019-01-27T11:02:50.412Z,97472.02
2019-01-27T11:05:19.023Z,97468.12
2019-01-27T11:07:47.155Z,97468.78
2019-01-27T11:10:31.755Z,97470.55
2019-01-27T11:13:08.973Z,97468.41
2019-01-27T11:15:43.135Z,97449.91
2019-01-27T11:18:28.170Z,97455.30
2019-01-27T11:20:59.218Z,97445.05
2019-01-27T11:23:33.957Z,97440.73
2019-01-27T11:26:05.033Z,97432.23
2019-01-27T11:28:42.106Z,97441.22
2019-01-27T11:31:27.698Z,97450.66
2019-01-27T11:34:14.136Z,97449.02
2019-01-27T11:36:47.942Z,97454.79
2019-01-27T11:39:16.033Z,97463.13
2019-01-27T11:41:44.160Z,97449.73
2019-01-27T11:44:12.511Z,97440.69
2019-01-27T11:46:40.635Z,97430.51
2019-01-27T11:49:16.230Z,97427.14
2019-01-27T11:51:43.779Z,97422.00
2019-01-27T11:54:09.932Z,97426.17
2019-01-27T11:56:36.198Z,97439.44
2019-01-27T11:59:03.258Z,97436.97
2019-01-27T12:01:29.436Z,97440.79
2019-01-27T12:03:55.701Z,97429.28
2019-01-27T12:06:21.994Z,97422.75
2019-01-27T12:08:48.211Z,97427.36
2019-01-27T12:11:14.539Z,97424.98
2019-01-27T12:13:43.577Z,97419.78
2019-01-27T12:16:09.832Z,97416.27
2019-01-27T12:18:36.228Z,97418.39
2019-01-27T12:21:02.395Z,97421.80
2019-01-27T12:23:29.515Z,97423.75
2019-01-27T12:25:55.711Z,97414.53
2019-01-27T12:28:22.308Z,97412.92
2019-01-27T12:30:48.486Z,97406.32
2019-01-27T12:33:14.710Z,97404.13
2019-01-27T12:35:41.159Z,97406.56
2019-01-27T12:38:07.499Z,97410.14
2019-01-27T12:40:33.803Z,97403.75
2019-01-27T12:43:00.061Z,97394.77
2019-01-27T12:45:26.379Z,97395.63
2019-01-27T12:47:52.616Z,97390.23
2019-01-27T12:50:19.222Z,97390.09
2019-01-27T12:52:49.205Z,97377.97
2019-01-27T12:55:15.411Z,97383.33
2019-01-27T12:57:41.662Z,97373.77
2019-01-27T13:00:18.719Z,97372.14
2019-01-27T13:02:45.313Z,97365.48
2019-01-27T13:05:12.039Z,97368.72
2019-01-27T13:07:38.337Z,97367.49
2019-01-27T13:10:10.282Z,97356.08
2019-01-27T13:12:36.735Z,97356.06
2019-01-27T13:15:08.385Z,97361.52
2019-01-27T13:17:34.614Z,97361.42
2019-01-27T13:20:00.768Z,97358.08
2019-01-27T13:22:26.952Z,97356.61
2019-01-27T13:24:53.185Z,97353.45
2019-01-27T13:27:19.743Z,97349.00
2019-01-27T13:29:46.347Z,97347.97
2019-01-27T13:32:12.550Z,97345.11
2019-01-27T13:34:38.875Z,97338.79
2019-01-27T13:37:05.048Z,97336.73
2019-01-27T13:39:31.272Z,97343.38
2019-01-27T13:41:57.717Z,97344.00
2019-01-27T13:44:24.039Z,97338.16
2019-01-27T13:46:50.324Z,97335.87
2019-01-27T13:49:17.254Z,97326.94
2019-01-27T13:51:43.432Z,97326.75
2019-01-27T13:54:09.645Z,97316.01
2019-01-27T13:56:35.883Z,97314.38
2019-01-27T13:59:02.102Z,97307.48
2019-01-27T14:01:28.670Z,97302.09
2019-01-27T14:03:54.937Z,97307.77
2019-01-27T14:06:21.141Z,97299.97
2019-01-27T14:08:47.362Z,97297.05
2019-01-27T14:11:13.559Z,97289.88
2019-01-27T14:13:39.773Z,97295.32
2019-01-27T14:16:06.231Z,97293.96
2019-01-27T14:18:32.515Z,97291.30
2019-01-27T14:20:58.654Z,97298.41
2019-01-27T14:23:25.146Z,97285.56
2019-01-27T14:25:51.370Z,97282.24
2019-01-27T14:28:17.664Z,97249.88
2019-01-27T14:30:44.161Z,97239.70
2019-01-27T14:33:10.422Z,97264.55
2019-01-27T14:35:36.667Z,97261.95
2019-01-27T14:38:03.371Z,97256.55
2019-01-27T14:40:30.072Z,97239.23
2019-01-27T14:42:56.343Z,97241.95
2019-01-27T14:45:30.970Z,97242.97
2019-01-27T14:47:57.973Z,97250.80
2019-01-27T14:50:28.955Z,97246.98
2019-01-27T14:52:55.194Z,97247.58
2019-01-27T14:55:22.311Z,97243.05
2019-01-27T14:57:48.748Z,97231.63
2019-01-27T15:00:22.763Z,97236.02
2019-01-27T15:02:49.247Z,97240.38
2019-01-27T15:05:15.659Z,97223.93
2019-01-27T15:07:42.108Z,97226.60
2019-01-27T15:10:15.502Z,97247.27
2019-01-27T15:12:42.390Z,97271.69
2019-01-27T15:15:15.948Z,97257.80
2019-01-27T15:17:42.123Z,97257.98
2019-01-27T15:20:24.716Z,97254.83
2019-01-27T15:22:51.138Z,97243.20
2019-01-27T15:25:17.420Z,97245.69
2019-01-27T15:27:43.727Z,97250.12
2019-01-27T15:30:17.980Z,97245.71
2019-01-27T15:32:44.704Z,97248.70
2019-01-27T15:35:10.911Z,97250.97
2019-01-27T15:37:37.081Z,97244.02
2019-01-27T15:40:11.480Z,97237.25
2019-01-27T15:42:40.667Z,97229.48
2019-01-27T15:45:20.759Z,97236.27
2019-01-27T15:47:46.932Z,97227.39
2019-01-27T15:50:17.684Z,97233.09
2019-01-27T15:52:43.878Z,97237.18
2019-01-27T15:55:15.200Z,97235.60
2019-01-27T15:57:41.497Z,97226.47
2019-01-27T16:00:21.382Z,97236.41
2019-01-27T16:02:47.870Z,97229.30
2019-01-27T16:05:18.184Z,97228.34
2019-01-27T16:07:44.901Z,97231.19
2019-01-27T16:10:15.508Z,97239.11
2019-01-27T16:12:42.134Z,97239.66
2019-01-27T16:15:13.180Z,97251.36
2019-01-27T16:17:39.355Z,97243.20
2019-01-27T16:20:10.764Z,97246.67
2019-01-27T16:22:37.124Z,97244.28
2019-01-27T16:25:08.129Z,97251.38
2019-01-27T16:27:34.377Z,97259.98
2019-01-27T16:30:02.444Z,97262.35
2019-01-27T16:32:28.760Z,97260.39
2019-01-27T16:34:55.357Z,97250.56
2019-01-27T16:37:21.877Z,97259.61
2019-01-27T16:39:48.059Z,97259.49
2019-01-27T16:42:14.620Z,97254.54
2019-01-27T16:44:41.406Z,97246.02
2019-01-27T16:47:07.615Z,97258.58
2019-01-27T16:49:33.786Z,97248.59
2019-01-27T16:52:00.015Z,97250.63
2019-01-27T16:54:26.185Z,97249.34
2019-01-27T16:56:52.783Z,97247.95
2019-01-27T16:59:19.177Z,97246.03
2019-01-27T17:01:45.383Z,97250.56
2019-01-27T17:04:11.890Z,97254.73
2019-01-27T17:06:38.153Z,97251.70
2019-01-27T17:09:07.194Z,97249.47
2019-01-27T17:11:33.479Z,97260.69
2019-01-27T17:13:59.902Z,97265.88
2019-01-27T17:16:26.108Z,97269.70
2019-01-27T17:18:52.655Z,97261.72
2019-01-27T17:21:18.889Z,97266.86
2019-01-27T17:23:45.057Z,97272.83
2019-01-27T17:26:12.211Z,97264.19
2019-01-27T17:28:38.565Z,97252.09
2019-01-27T17:31:05.094Z,97250.84
2019-01-27T17:33:31.306Z,97242.98
2019-01-27T17:35:57.968Z,97234.02
2019-01-27T17:38:25.086Z,97231.10
2019-01-27T17:40:53.332Z,97242.10
2019-01-27T17:43:19.555Z,97236.41
2019-01-27T17:45:46.586Z,97244.45
2019-01-27T17:48:13.140Z,97236.73
2019-01-27T17:50:39.306Z,97237.06
2019-01-27T17:53:05.646Z,97230.16
2019-01-27T17:55:43.503Z,97239.88
2019-01-27T17:58:24.609Z,97230.05
2019-01-27T18:00:55.352Z,97229.11
2019-01-27T18:03:29.436Z,97230.95
2019-01-27T18:06:03.493Z,97237.35
2019-01-27T18:08:31.677Z,97242.16
2019-01-27T18:11:03.301Z,97238.88
2019-01-27T18:13:29.939Z,97248.73
2019-01-27T18:15:56.430Z,97247.73
2019-01-27T18:18:22.646Z,97247.92
2019-01-27T18:20:48.827Z,97251.36
2019-01-27T18:23:15.034Z,97251.41
2019-01-27T18:25:41.502Z,97252.59
2019-01-27T18:28:07.920Z,97256.09
2019-01-27T18:30:34.305Z,97254.20
2019-01-27T18:33:00.492Z,97251.70
2019-01-27T18:35:28.552Z,97246.04
2019-01-27T18:37:54.747Z,97246.28
2019-01-27T18:40:20.939Z,97247.53
2019-01-27T18:42:47.161Z,97243.00
2019-01-27T18:45:15.168Z,97249.63
2019-01-27T18:47:41.554Z,97251.16
2019-01-27T18:50:12.171Z,97249.39
2019-01-27T18:52:38.567Z,97247.48
2019-01-27T18:55:14.350Z,97242.13
2019-01-27T18:57:42.567Z,97241.20
2019-01-27T19:00:15.100Z,97240.88
2019-01-27T19:03:02.151Z,97239.48
2019-01-27T19:05:30.409Z,97243.95
2019-01-27T19:07:58.564Z,97238.75
2019-01-27T19:10:38.836Z,97240.23
2019-01-27T19:13:07.222Z,97243.88
2019-01-27T19:15:45.123Z,97244.88
2019-01-27T19:18:30.231Z,97241.80
2019-01-27T19:20:58.371Z,97247.89
2019-01-27T19:23:32.700Z,97242.00
2019-01-27T19:26:06.551Z,97243.81
2019-01-27T19:28:34.754Z,97247.28
2019-01-27T19:31:05.530Z,97257.95
2019-01-27T19:33:33.639Z,97259.11
2019-01-27T19:36:01.720Z,97257.61
2019-01-27T19:38:35.558Z,97264.05
2019-01-27T19:41:18.637Z,97267.30
2019-01-27T19:43:46.763Z,97273.39
2019-01-27T19:46:19.006Z,97273.58
2019-01-27T19:48:47.294Z,97269.66
2019-01-27T19:51:33.782Z,97270.17
2019-01-27T19:54:05.006Z,97276.92
2019-01-27T19:56:33.094Z,97273.14
2019-01-27T19:59:04.240Z,97275.77
2019-01-27T20:01:44.623Z,97274.83
2019-01-27T20:04:15.573Z,97272.06
2019-01-27T20:06:52.613Z,97274.70
2019-01-27T20:09:39.351Z,97277.34
2019-01-27T20:12:10.352Z,97277.67
2019-01-27T20:14:44.241Z,97278.49
2019-01-27T20:17:12.593Z,97285.22
2019-01-27T20:19:49.835Z,97281.79
2019-01-27T20:22:35.946Z,97285.59
2019-01-27T20:25:22.491Z,97285.44
2019-01-27T20:28:06.840Z,97290.04
2019-01-27T20:30:40.670Z,97288.08
2019-01-27T20:33:09.020Z,97292.34
2019-01-27T20:35:43.267Z,97294.27
2019-01-27T20:38:11.450Z,97288.22
2019-01-27T20:40:39.643Z,97285.63
2019-01-27T20:43:22.972Z,97285.61
2019-01-27T20:46:00.897Z,97283.32
2019-01-27T20:48:29.255Z,97282.34
2019-01-27T20:50:59.248Z,97279.38
2019-01-27T20:53:36.358Z,97277.09
2019-01-27T20:56:05.046Z,97287.40
2019-01-27T20:58:33.135Z,97281.50
2019-01-27T21:01:13.257Z,97281.48
2019-01-27T21:03:44.830Z,97281.34
2019-01-27T21:06:15.908Z,97283.47
2019-01-27T21:08:43.991Z,97282.97
2019-01-27T21:11:14.882Z,97283.29
2019-01-27T21:13:49.446Z,97278.86
2019-01-27T21:16:34.500Z,97276.57
2019-01-27T21:19:02.584Z,97279.36
2019-01-27T21:21:28.762Z,97273.27
2019-01-27T21:23:54.981Z,97281.48
2019-01-27T21:26:21.219Z,97278.67
2019-01-27T21:28:47.725Z,97278.50
2019-01-27T21:31:14.129Z,97279.28
2019-01-27T21:33:40.331Z,97284.02
2019-01-27T21:36:06.600Z,97287.80
2019-01-27T21:38:32.779Z,97285.81
2019-01-27T21:40:59.314Z,97287.77
2019-01-27T21:43:25.523Z,97290.05
2019-01-27T21:45:51.798Z,97285.94
2019-01-27T21:48:17.951Z,97287.56
2019-01-27T21:50:44.495Z,97286.55
2019-01-27T21:53:10.675Z,97279.99
2019-01-27T21:55:37.161Z,97276.72
2019-01-27T21:58:03.700Z,97276.19
2019-01-27T22:00:29.933Z,97280.24
2019-01-27T22:02:56.546Z,97278.41
2019-01-27T22:05:22.910Z,97276.77
2019-01-27T22:07:49.215Z,97267.87
2019-01-27T22:10:15.728Z,97272.95
2019-01-27T22:12:41.954Z,97267.52
2019-01-27T22:15:10.015Z,97270.45
2019-01-27T22:17:36.392Z,97267.95
2019-01-27T22:20:07.687Z,97264.80
2019-01-27T22:22:34.124Z,97271.66
2019-01-27T22:25:00.597Z,97265.58
2019-01-27T22:27:27.251Z,97273.91
2019-01-27T22:29:53.412Z,97270.76
2019-01-27T22:32:19.638Z,97266.48
2019-01-27T22:34:45.834Z,97271.22
2019-01-27T22:37:12.011Z,97274.45
2019-01-27T22:39:38.201Z,97270.65
2019-01-27T22:42:04.389Z,97273.54
2019-01-27T22:44:30.576Z,97268.27
2019-01-27T22:46:56.784Z,97272.35
2019-01-27T22:49:23.816Z,97273.45
2019-01-27T22:51:49.988Z,97272.80
2019-01-27T22:54:16.153Z,97274.70
2019-01-27T22:56:42.343Z,97279.25
2019-01-27T22:59:08.506Z,97267.55
2019-01-27T23:01:35.532Z,97270.45
2019-01-27T23:04:02.396Z,97271.05
2019-01-27T23:06:28.596Z,97258.84
2019-01-27T23:08:54.777Z,97264.18
2019-01-27T23:11:20.982Z,97265.55
2019-01-27T23:13:47.410Z,97266.81
2019-01-27T23:16:13.714Z,97264.58
2019-01-27T23:18:39.900Z,97266.98
2019-01-27T23:21:06.172Z,97270.02
2019-01-27T23:23:32.356Z,97272.78
2019-01-27T23:25:58.538Z,97279.61
2019-01-27T23:28:24.724Z,97281.23
2019-01-27T23:30:51.312Z,97290.94
2019-01-27T23:33:17.519Z,97283.12
2019-01-27T23:35:44.007Z,97293.15
2019-01-27T23:38:10.244Z,97292.55
2019-01-27T23:40:36.792Z,97294.70
2019-01-27T23:43:03.427Z,97293.22
2019-01-27T23:45:29.615Z,97301.78
2019-01-27T23:47:55.786Z,97305.89
2019-01-27T23:50:21.959Z,97301.63
2019-01-27T23:52:48.158Z,97299.38
2019-01-27T23:55:14.320Z,97301.05
2019-01-27T23:57:40.641Z,97304.55
